Terminal Aerodrome Forecast
Issued by NWS

Home | Current Version | Previous Version | Text Only | Print | Product List | Glossary On
Versions: 1 2 3 4 5 6 7 8 9 10 11 12 13 14 15 16
000
FTUS43 KPAH 271128
TAFCGI
TAF
KCGI 271128Z 2712/2812 36010KT P6SM SKC
     FM271500 01010KT P6SM SCT020 BKN150
     FM272100 03007KT P6SM OVC100
     FM280500 04006KT P6SM OVC050=

USA.gov is the U.S. government's official web portal to all federal, state and local government web resources and services.